sensor_id;sensor_type;location;lat;lon;timestamp;pressure;altitude;pressure_sealevel;temperature;humidity
76331;BME280;65148;51.912;15.570;2023-02-04T00:07:37;101418.96;;;3.34;99.92
76331;BME280;65148;51.912;15.570;2023-02-04T00:22:38;101521.01;;;3.04;91.89
76331;BME280;65148;51.912;15.570;2023-02-04T00:37:39;101597.87;;;2.86;91.44
76331;BME280;65148;51.912;15.570;2023-02-04T00:53:01;101701.34;;;2.77;90.44
76331;BME280;65148;51.912;15.570;2023-02-04T01:08:02;101779.34;;;2.58;87.67
76331;BME280;65148;51.912;15.570;2023-02-04T01:23:03;101865.96;;;2.46;85.78
76331;BME280;65148;51.912;15.570;2023-02-04T01:38:04;101948.30;;;2.06;86.23
76331;BME280;65148;51.912;15.570;2023-02-04T01:53:27;102041.70;;;2.04;84.25
76331;BME280;65148;51.912;15.570;2023-02-04T02:08:28;102113.95;;;1.99;84.36
76331;BME280;65148;51.912;15.570;2023-02-04T02:39:08;102237.30;;;2.01;83.62
76331;BME280;65148;51.912;15.570;2023-02-04T02:54:21;102282.45;;;1.91;82.57
76331;BME280;65148;51.912;15.570;2023-02-04T03:09:24;102342.27;;;1.84;81.33
76331;BME280;65148;51.912;15.570;2023-02-04T03:24:50;102400.83;;;1.60;81.72
76331;BME280;65148;51.912;15.570;2023-02-04T03:39:53;102442.37;;;1.64;82.45
76331;BME280;65148;51.912;15.570;2023-02-04T03:54:54;102514.38;;;1.45;83.48
76331;BME280;65148;51.912;15.570;2023-02-04T04:09:55;102570.81;;;1.37;83.69
76331;BME280;65148;51.912;15.570;2023-02-04T04:25:15;102610.88;;;1.16;83.78
76331;BME280;65148;51.912;15.570;2023-02-04T04:40:17;102652.19;;;1.07;83.87
76331;BME280;65148;51.912;15.570;2023-02-04T04:55:18;102706.51;;;1.01;84.71
76331;BME280;65148;51.912;15.570;2023-02-04T05:10:19;102727.28;;;0.99;85.61
76331;BME280;65148;51.912;15.570;2023-02-04T05:25:41;102778.14;;;0.76;87.52
76331;BME280;65148;51.912;15.570;2023-02-04T05:40:42;102803.47;;;0.65;88.43
76331;BME280;65148;51.912;15.570;2023-02-04T05:55:43;102858.58;;;0.68;88.59
76331;BME280;65148;51.912;15.570;2023-02-04T06:10:44;102907.19;;;0.65;88.58
76331;BME280;65148;51.912;15.570;2023-02-04T06:26:05;102922.09;;;0.43;89.37
76331;BME280;65148;51.912;15.570;2023-02-04T06:41:07;102960.24;;;0.45;89.82
76331;BME280;65148;51.912;15.570;2023-02-04T06:56:08;103012.98;;;0.36;91.52
76331;BME280;65148;51.912;15.570;2023-02-04T07:11:10;103039.28;;;0.41;91.91
76331;BME280;65148;51.912;15.570;2023-02-04T07:26:31;103062.71;;;0.31;92.39
76331;BME280;65148;51.912;15.570;2023-02-04T07:41:34;103078.14;;;0.45;92.96
76331;BME280;65148;51.912;15.570;2023-02-04T07:56:35;103089.95;;;0.77;91.61
76331;BME280;65148;51.912;15.570;2023-02-04T08:11:36;103113.66;;;0.97;91.37
76331;BME280;65148;51.912;15.570;2023-02-04T08:26:56;103129.92;;;1.12;90.45
76331;BME280;65148;51.912;15.570;2023-02-04T08:41:58;103136.98;;;1.37;89.65
76331;BME280;65148;51.912;15.570;2023-02-04T08:57:00;103174.76;;;1.68;88.71
76331;BME280;65148;51.912;15.570;2023-02-04T09:12:01;103193.03;;;1.97;87.03
76331;BME280;65148;51.912;15.570;2023-02-04T09:27:22;103230.59;;;2.30;85.66
76331;BME280;65148;51.912;15.570;2023-02-04T09:42:25;103254.10;;;2.99;83.71
76331;BME280;65148;51.912;15.570;2023-02-04T09:57:26;103270.08;;;2.92;79.66
76331;BME280;65148;51.912;15.570;2023-02-04T10:12:28;103282.05;;;2.90;80.49
76331;BME280;65148;51.912;15.570;2023-02-04T10:27:55;103294.49;;;2.91;78.67
76331;BME280;65148;51.912;15.570;2023-02-04T10:42:57;103293.62;;;2.99;78.16
76331;BME280;65148;51.912;15.570;2023-02-04T10:57:59;103305.63;;;2.80;79.51
76331;BME280;65148;51.912;15.570;2023-02-04T11:13:42;103316.92;;;2.51;84.67
76331;BME280;65148;51.912;15.570;2023-02-04T11:43:57;103331.46;;;2.97;76.09
76331;BME280;65148;51.912;15.570;2023-02-04T11:59:11;103327.04;;;3.51;69.72
76331;BME280;65148;51.912;15.570;2023-02-04T12:14:16;103352.16;;;3.36;71.18
76331;BME280;65148;51.912;15.570;2023-02-04T12:29:17;103364.30;;;2.52;79.77
76331;BME280;65148;51.912;15.570;2023-02-04T12:44:18;103378.37;;;3.50;74.92
76331;BME280;65148;51.912;15.570;2023-02-04T12:59:34;103386.87;;;3.30;74.41
76331;BME280;65148;51.912;15.570;2023-02-04T13:14:35;103385.62;;;2.86;75.10
76331;BME280;65148;51.912;15.570;2023-02-04T13:29:36;103379.04;;;3.52;73.40
76331;BME280;65148;51.912;15.570;2023-02-04T13:44:37;103408.80;;;3.11;68.63
76331;BME280;65148;51.912;15.570;2023-02-04T14:01:44;103429.47;;;3.19;65.78
76331;BME280;65148;51.912;15.570;2023-02-04T14:16:45;103432.27;;;3.42;55.49
76331;BME280;65148;51.912;15.570;2023-02-04T14:31:45;103444.64;;;2.87;58.41
76331;BME280;65148;51.912;15.570;2023-02-04T14:47:09;103442.98;;;2.70;58.79
76331;BME280;65148;51.912;15.570;2023-02-04T15:02:11;103452.02;;;2.61;57.45
76331;BME280;65148;51.912;15.570;2023-02-04T15:17:15;103472.53;;;2.46;58.72
76331;BME280;65148;51.912;15.570;2023-02-04T15:32:16;103479.54;;;2.31;59.12
76331;BME280;65148;51.912;15.570;2023-02-04T15:47:35;103488.89;;;2.10;59.30
76331;BME280;65148;51.912;15.570;2023-02-04T16:02:36;103513.06;;;2.02;60.04
76331;BME280;65148;51.912;15.570;2023-02-04T16:17:37;103541.48;;;1.79;60.17
76331;BME280;65148;51.912;15.570;2023-02-04T16:32:38;103554.73;;;1.72;60.93
76331;BME280;65148;51.912;15.570;2023-02-04T16:48:01;103558.97;;;1.57;60.20
76331;BME280;65148;51.912;15.570;2023-02-04T17:03:02;103578.95;;;1.63;60.49
76331;BME280;65148;51.912;15.570;2023-02-04T17:18:03;103593.73;;;1.59;59.42
76331;BME280;65148;51.912;15.570;2023-02-04T17:33:03;103607.16;;;1.41;59.10
76331;BME280;65148;51.912;15.570;2023-02-04T17:48:28;103611.01;;;1.21;58.83
76331;BME280;65148;51.912;15.570;2023-02-04T18:03:29;103625.06;;;1.15;59.99
76331;BME280;65148;51.912;15.570;2023-02-04T18:18:39;103646.12;;;0.92;60.67
76331;BME280;65148;51.912;15.570;2023-02-04T18:33:45;103641.93;;;0.62;61.04
76331;BME280;65148;51.912;15.570;2023-02-04T18:49:05;103643.45;;;0.37;62.03
76331;BME280;65148;51.912;15.570;2023-02-04T19:04:21;103660.31;;;0.20;62.48
76331;BME280;65148;51.912;15.570;2023-02-04T19:34:51;103675.48;;;-0.18;63.97
76331;BME280;65148;51.912;15.570;2023-02-04T19:49:59;103677.60;;;-0.31;64.39
76331;BME280;65148;51.912;15.570;2023-02-04T20:20:35;103693.53;;;-0.58;66.48
76331;BME280;65148;51.912;15.570;2023-02-04T20:50:55;103727.33;;;-0.77;68.18
76331;BME280;65148;51.912;15.570;2023-02-04T21:21:29;103740.21;;;-1.01;70.82
76331;BME280;65148;51.912;15.570;2023-02-04T21:36:30;103750.69;;;-1.19;71.84
76331;BME280;65148;51.912;15.570;2023-02-04T21:51:31;103756.46;;;-1.23;72.26
76331;BME280;65148;51.912;15.570;2023-02-04T22:06:46;103773.38;;;-1.43;73.62
76331;BME280;65148;51.912;15.570;2023-02-04T22:21:47;103781.91;;;-1.50;74.87
76331;BME280;65148;51.912;15.570;2023-02-04T22:36:48;103779.23;;;-1.50;75.56
76331;BME280;65148;51.912;15.570;2023-02-04T22:51:49;103786.81;;;-1.55;75.84
76331;BME280;65148;51.912;15.570;2023-02-04T23:07:15;103784.66;;;-1.61;76.07
76331;BME280;65148;51.912;15.570;2023-02-04T23:22:16;103789.02;;;-1.60;76.40
76331;BME280;65148;51.912;15.570;2023-02-04T23:37:17;103791.64;;;-1.69;77.28
76331;BME280;65148;51.912;15.570;2023-02-04T23:52:18;103785.89;;;-1.44;77.03
